Time;durP1;ratioP1;P1;durP2;ratioP2;P2;SDS_P1;SDS_P2;PMS_P1;PMS_P2;Temp;Humidity;BMP_temperature;BMP_pressure;BME280_temperature;BME280_humidity;BME280_pressure;Samples;Min_cycle;Max_cycle;Signal;HPM_P1;HPM_P2
2021/12/10 00:01:24;;;;;;;5.23;2.77;;;;;;;;;;5033747;28;20446;-67
2021/12/10 00:03:52;;;;;;;5.00;2.57;;;;;;;;;;5050789;28;20890;-69
2021/12/10 00:06:21;;;;;;;6.87;2.70;;;;;;;;;;5053793;28;20452;-69
2021/12/10 00:08:49;;;;;;;4.50;2.80;;;;;;;;;;5037027;28;20438;-65
2021/12/10 00:11:21;;;;;;;4.17;2.50;;;;;;;;;;5052307;28;20775;-68
2021/12/10 00:13:48;;;;;;;5.70;2.67;;;;;;;;;;5037565;28;20434;-66
2021/12/10 00:16:16;;;;;;;2.97;1.90;;;;;;;;;;5033682;28;20400;-70
2021/12/10 00:18:49;;;;;;;5.00;2.30;;;;;;;;;;5046715;28;20457;-70
2021/12/10 00:21:15;;;;;;;6.90;2.67;;;;;;;;;;5048020;28;20510;-70
2021/12/10 00:23:45;;;;;;;5.07;2.70;;;;;;;;;;5033477;28;20458;-67
2021/12/10 00:26:11;;;;;;;4.17;2.37;;;;;;;;;;5037057;28;20419;-70
2021/12/10 00:28:40;;;;;;;6.43;2.43;;;;;;;;;;5046715;28;20416;-68
2021/12/10 00:31:32;;;;;;;3.40;2.20;;;;;;;;;;5046423;28;20415;-72
2021/12/10 00:34:01;;;;;;;5.73;2.10;;;;;;;;;;5053271;28;20401;-69
2021/12/10 00:36:27;;;;;;;3.00;2.03;;;;;;;;;;5052208;28;20810;-69
2021/12/10 00:38:53;;;;;;;3.80;2.27;;;;;;;;;;5048290;28;20957;-68
2021/12/10 00:41:20;;;;;;;4.53;2.33;;;;;;;;;;5045540;28;20502;-67
2021/12/10 00:43:47;;;;;;;5.27;2.43;;;;;;;;;;5053195;28;20901;-69
2021/12/10 00:46:13;;;;;;;4.33;2.23;;;;;;;;;;5039853;28;20438;-69
2021/12/10 00:48:39;;;;;;;4.20;2.43;;;;;;;;;;5033127;28;20927;-69
2021/12/10 00:51:07;;;;;;;3.07;2.50;;;;;;;;;;5043539;28;20973;-70
2021/12/10 00:53:34;;;;;;;4.60;2.10;;;;;;;;;;5052318;28;20413;-69
2021/12/10 00:56:00;;;;;;;3.70;2.70;;;;;;;;;;5043377;28;20834;-70
2021/12/10 00:58:26;;;;;;;5.10;2.33;;;;;;;;;;5038747;28;20518;-69
2021/12/10 01:00:55;;;;;;;3.50;1.93;;;;;;;;;;5053020;28;20469;-67
2021/12/10 01:03:24;;;;;;;3.27;2.23;;;;;;;;;;5050379;28;20439;-67
2021/12/10 01:05:52;;;;;;;3.10;2.13;;;;;;;;;;5052952;28;20406;-69
2021/12/10 01:08:19;;;;;;;1.90;1.80;;;;;;;;;;5041045;28;20506;-69
2021/12/10 01:10:48;;;;;;;8.43;2.60;;;;;;;;;;5032847;28;20433;-69
2021/12/10 01:13:18;;;;;;;4.20;2.10;;;;;;;;;;5034272;28;20460;-69
2021/12/10 01:23:47;;;;;;;4.50;2.50;;;;;;;;;;5052889;28;20453;-68
2021/12/10 01:24:15;;;;;;;7.27;2.97;;;;;;;;;;5048903;28;20423;-70
2021/12/10 01:29:11;;;;;;;3.23;2.03;;;;;;;;;;5036361;28;20426;-71
2021/12/10 01:31:38;;;;;;;3.90;2.20;;;;;;;;;;5036759;28;20915;-70
2021/12/10 01:34:04;;;;;;;3.77;2.40;;;;;;;;;;5032884;28;20403;-71
2021/12/10 01:36:30;;;;;;;4.40;1.90;;;;;;;;;;5038565;28;20936;-71
2021/12/10 01:38:56;;;;;;;4.57;2.50;;;;;;;;;;5056327;28;20458;-70
2021/12/10 01:41:27;;;;;;;3.70;1.80;;;;;;;;;;5050579;28;20437;-69
2021/12/10 01:44:00;;;;;;;6.40;2.20;;;;;;;;;;5056552;28;20409;-71
2021/12/10 01:46:27;;;;;;;2.80;1.73;;;;;;;;;;5052203;28;20411;-68
2021/12/10 01:48:55;;;;;;;5.10;1.77;;;;;;;;;;5036257;28;20957;-70
2021/12/10 01:51:23;;;;;;;2.70;2.17;;;;;;;;;;5049333;28;20456;-70
2021/12/10 01:53:51;;;;;;;5.53;2.30;;;;;;;;;;5046437;28;20417;-69
2021/12/10 01:56:23;;;;;;;2.60;1.70;;;;;;;;;;5054325;28;20454;-68
2021/12/10 01:58:50;;;;;;;2.23;1.70;;;;;;;;;;5036187;28;20408;-70
2021/12/10 02:01:19;;;;;;;4.57;1.73;;;;;;;;;;5036479;28;20438;-70
2021/12/10 02:03:46;;;;;;;7.70;1.97;;;;;;;;;;5048204;28;20424;-70
2021/12/10 02:06:13;;;;;;;4.70;1.70;;;;;;;;;;5044934;28;20402;-70
2021/12/10 02:08:39;;;;;;;2.80;1.87;;;;;;;;;;5053593;28;20418;-70
2021/12/10 02:11:05;;;;;;;2.80;1.80;;;;;;;;;;5043891;28;20430;-69
2021/12/10 02:13:32;;;;;;;1.87;1.50;;;;;;;;;;5055955;28;20770;-71
2021/12/10 02:15:58;;;;;;;3.07;1.97;;;;;;;;;;5049328;28;20486;-71
2021/12/10 02:18:24;;;;;;;3.63;1.70;;;;;;;;;;5053188;28;20595;-70
2021/12/10 02:21:03;;;;;;;3.33;1.60;;;;;;;;;;5050935;28;20475;-71
2021/12/10 02:23:29;;;;;;;1.80;1.40;;;;;;;;;;5035713;28;21029;-68
2021/12/10 02:25:56;;;;;;;3.67;1.70;;;;;;;;;;5039953;28;20921;-69
2021/12/10 02:28:23;;;;;;;2.60;1.67;;;;;;;;;;5054795;28;20910;-71
2021/12/10 02:30:49;;;;;;;7.40;1.90;;;;;;;;;;5052493;28;20428;-72
2021/12/10 02:33:16;;;;;;;3.17;1.63;;;;;;;;;;5035680;28;20415;-70
2021/12/10 02:35:43;;;;;;;3.57;1.43;;;;;;;;;;5041977;28;20405;-71
2021/12/10 02:38:09;;;;;;;2.80;1.83;;;;;;;;;;5035327;28;20903;-69
2021/12/10 02:40:36;;;;;;;3.67;1.40;;;;;;;;;;5053768;28;20558;-68
2021/12/10 02:43:05;;;;;;;2.40;1.73;;;;;;;;;;5053528;28;20416;-67
2021/12/10 02:45:31;;;;;;;4.00;1.73;;;;;;;;;;5052392;28;20431;-69
2021/12/10 02:47:57;;;;;;;2.20;1.60;;;;;;;;;;5039094;28;20454;-68
2021/12/10 02:50:25;;;;;;;5.00;1.93;;;;;;;;;;5035167;28;20705;-70
2021/12/10 02:52:51;;;;;;;2.70;1.90;;;;;;;;;;5035072;28;20427;-69
2021/12/10 02:55:18;;;;;;;8.07;2.23;;;;;;;;;;5035260;28;20400;-69
2021/12/10 02:57:45;;;;;;;5.20;1.87;;;;;;;;;;5034815;28;20483;-68
2021/12/10 03:00:14;;;;;;;4.37;1.70;;;;;;;;;;5035039;28;20475;-68
2021/12/10 03:02:40;;;;;;;3.47;1.70;;;;;;;;;;5043847;28;20426;-69
2021/12/10 03:05:07;;;;;;;4.40;1.97;;;;;;;;;;5050693;28;20418;-69
2021/12/10 03:07:34;;;;;;;2.37;1.40;;;;;;;;;;5054848;28;20406;-70
2021/12/10 03:10:01;;;;;;;6.87;2.60;;;;;;;;;;5053169;28;20921;-70
2021/12/10 03:12:27;;;;;;;6.40;2.13;;;;;;;;;;5052960;28;20917;-70
2021/12/10 03:14:55;;;;;;;2.83;1.70;;;;;;;;;;5054797;28;20416;-70
2021/12/10 03:17:23;;;;;;;5.10;2.20;;;;;;;;;;5047245;28;20470;-70
2021/12/10 03:19:50;;;;;;;2.80;1.97;;;;;;;;;;5034364;28;20455;-70
2021/12/10 03:22:16;;;;;;;1.97;1.73;;;;;;;;;;5048475;28;21044;-70
2021/12/10 03:24:42;;;;;;;2.07;1.70;;;;;;;;;;5034589;28;20400;-70
2021/12/10 03:27:10;;;;;;;3.40;2.10;;;;;;;;;;5038542;28;20426;-70
2021/12/10 03:29:38;;;;;;;3.27;2.00;;;;;;;;;;5047112;28;20406;-69
2021/12/10 03:32:06;;;;;;;2.83;1.83;;;;;;;;;;5037200;28;20422;-70
2021/12/10 03:34:32;;;;;;;6.07;1.93;;;;;;;;;;5054418;28;20930;-71
2021/12/10 03:36:59;;;;;;;2.70;1.87;;;;;;;;;;5046082;28;20462;-68
2021/12/10 03:39:26;;;;;;;2.70;1.70;;;;;;;;;;5042701;28;20497;-71
2021/12/10 03:41:54;;;;;;;6.00;1.90;;;;;;;;;;5046864;28;20423;-70
2021/12/10 03:44:20;;;;;;;4.83;1.80;;;;;;;;;;5034314;28;20401;-70
2021/12/10 03:46:46;;;;;;;3.73;2.10;;;;;;;;;;5049303;28;20913;-70
2021/12/10 03:49:13;;;;;;;4.17;2.17;;;;;;;;;;5042344;28;20436;-70
2021/12/10 03:51:39;;;;;;;8.07;2.17;;;;;;;;;;5046454;28;20512;-70
2021/12/10 03:54:06;;;;;;;2.80;2.03;;;;;;;;;;5040361;28;20430;-70
2021/12/10 03:56:33;;;;;;;3.87;2.27;;;;;;;;;;5053407;28;20464;-67
2021/12/10 03:59:01;;;;;;;3.37;1.97;;;;;;;;;;5047467;28;20428;-70
2021/12/10 04:01:28;;;;;;;2.10;1.83;;;;;;;;;;5035543;28;20420;-68
2021/12/10 04:03:55;;;;;;;5.73;2.70;;;;;;;;;;5034048;28;20838;-71
2021/12/10 04:06:23;;;;;;;3.67;2.60;;;;;;;;;;5039384;28;20529;-69
2021/12/10 04:08:49;;;;;;;4.90;2.40;;;;;;;;;;5050630;28;20423;-69
2021/12/10 04:11:16;;;;;;;2.40;1.97;;;;;;;;;;5033710;28;20481;-70
2021/12/10 04:13:45;;;;;;;2.63;1.80;;;;;;;;;;5035041;28;20956;-68
2021/12/10 04:16:12;;;;;;;5.30;2.37;;;;;;;;;;5052435;28;20891;-69
2021/12/10 04:18:38;;;;;;;3.10;2.40;;;;;;;;;;5049712;28;20444;-70
2021/12/10 04:21:05;;;;;;;5.50;2.80;;;;;;;;;;5033486;28;20558;-70
2021/12/10 04:23:31;;;;;;;2.73;2.10;;;;;;;;;;5033499;28;20451;-70
2021/12/10 04:25:57;;;;;;;2.67;2.20;;;;;;;;;;5034531;28;20420;-70
2021/12/10 04:28:23;;;;;;;6.60;2.60;;;;;;;;;;5049134;28;20425;-70
2021/12/10 04:30:51;;;;;;;4.93;2.13;;;;;;;;;;5033457;28;20501;-70
2021/12/10 04:33:21;;;;;;;4.00;2.40;;;;;;;;;;5032144;28;20419;-68
2021/12/10 04:35:47;;;;;;;4.00;2.10;;;;;;;;;;5039666;28;20417;-71
2021/12/10 04:38:15;;;;;;;3.73;2.60;;;;;;;;;;5050313;28;20433;-70
2021/12/10 04:40:41;;;;;;;3.83;2.23;;;;;;;;;;5052772;28;20469;-71
2021/12/10 04:43:08;;;;;;;4.97;2.90;;;;;;;;;;5051498;28;20504;-69
2021/12/10 04:45:34;;;;;;;6.80;2.90;;;;;;;;;;5040743;28;20424;-68
2021/12/10 04:48:00;;;;;;;3.03;2.30;;;;;;;;;;5033103;28;20419;-69
2021/12/10 04:50:27;;;;;;;6.83;3.67;;;;;;;;;;5041405;28;20514;-70
2021/12/10 04:52:54;;;;;;;4.17;2.73;;;;;;;;;;5053092;28;20407;-70
2021/12/10 04:55:20;;;;;;;3.50;2.80;;;;;;;;;;5043776;28;20411;-70
2021/12/10 04:57:47;;;;;;;4.27;3.03;;;;;;;;;;5033007;28;20588;-70
2021/12/10 05:00:15;;;;;;;18.23;3.57;;;;;;;;;;5039936;28;20485;-69
2021/12/10 05:02:41;;;;;;;5.70;2.77;;;;;;;;;;5052981;28;20477;-71
2021/12/10 05:05:08;;;;;;;6.23;2.70;;;;;;;;;;5045795;28;20439;-70
2021/12/10 05:07:36;;;;;;;5.50;3.43;;;;;;;;;;5040020;28;20437;-69
2021/12/10 05:10:04;;;;;;;6.10;3.73;;;;;;;;;;5047303;28;20468;-70
2021/12/10 05:12:30;;;;;;;5.50;3.30;;;;;;;;;;5036646;28;20735;-69
2021/12/10 05:15:00;;;;;;;3.60;2.60;;;;;;;;;;5041947;28;20418;-69
2021/12/10 05:17:28;;;;;;;5.27;3.33;;;;;;;;;;5046666;28;20798;-69
2021/12/10 05:19:54;;;;;;;3.70;3.40;;;;;;;;;;5041114;28;20477;-69
2021/12/10 05:22:20;;;;;;;6.67;3.23;;;;;;;;;;5056779;28;20409;-70
2021/12/10 05:24:47;;;;;;;4.53;3.43;;;;;;;;;;5047947;28;20466;-70
2021/12/10 05:27:13;;;;;;;5.60;3.40;;;;;;;;;;5055737;28;20446;-70
2021/12/10 05:29:39;;;;;;;7.33;3.57;;;;;;;;;;5049274;28;20181;-70
2021/12/10 05:32:05;;;;;;;8.50;4.17;;;;;;;;;;5036546;28;20400;-70
2021/12/10 05:34:31;;;;;;;7.70;3.50;;;;;;;;;;5046196;28;20500;-70
2021/12/10 05:36:59;;;;;;;7.73;3.70;;;;;;;;;;5035185;28;20748;-70
2021/12/10 05:39:25;;;;;;;6.00;4.50;;;;;;;;;;5051057;28;20480;-71
2021/12/10 05:41:52;;;;;;;6.30;3.93;;;;;;;;;;5056483;28;20407;-70
2021/12/10 05:44:18;;;;;;;5.10;3.73;;;;;;;;;;5049769;28;20415;-71
2021/12/10 05:46:44;;;;;;;6.23;3.60;;;;;;;;;;5035184;28;20850;-71
2021/12/10 05:49:10;;;;;;;6.40;4.37;;;;;;;;;;5047496;28;20943;-71
2021/12/10 05:51:36;;;;;;;4.97;3.47;;;;;;;;;;5055116;28;20419;-71
2021/12/10 05:54:03;;;;;;;7.43;4.40;;;;;;;;;;5048742;28;20983;-70
2021/12/10 05:56:29;;;;;;;4.30;3.90;;;;;;;;;;5054292;28;20508;-71
2021/12/10 05:58:55;;;;;;;6.23;4.57;;;;;;;;;;5055393;28;20492;-70
2021/12/10 06:01:22;;;;;;;6.20;4.03;;;;;;;;;;5056068;28;20494;-70
2021/12/10 06:03:52;;;;;;;6.33;3.73;;;;;;;;;;5048070;28;20511;-71
2021/12/10 06:06:19;;;;;;;9.60;4.13;;;;;;;;;;5035489;28;20845;-71
2021/12/10 06:08:45;;;;;;;11.40;4.93;;;;;;;;;;5041998;28;20935;-71
2021/12/10 06:11:11;;;;;;;6.27;4.30;;;;;;;;;;5048693;28;20489;-71
2021/12/10 06:13:37;;;;;;;8.20;4.10;;;;;;;;;;5054152;28;20780;-72
2021/12/10 06:16:04;;;;;;;5.70;4.07;;;;;;;;;;5052261;28;20509;-71
2021/12/10 06:18:30;;;;;;;4.63;3.70;;;;;;;;;;5046422;28;20437;-71
2021/12/10 06:20:56;;;;;;;6.40;4.00;;;;;;;;;;5049367;28;20475;-70
2021/12/10 06:23:23;;;;;;;8.27;4.77;;;;;;;;;;5034999;28;20408;-71
2021/12/10 06:25:49;;;;;;;8.43;4.37;;;;;;;;;;5046902;28;20454;-70
2021/12/10 06:28:17;;;;;;;8.80;4.80;;;;;;;;;;5039012;28;20460;-70
2021/12/10 06:30:44;;;;;;;8.20;4.97;;;;;;;;;;5037434;28;20526;-72
2021/12/10 06:33:12;;;;;;;7.77;4.80;;;;;;;;;;5048027;28;20427;-71
2021/12/10 06:35:39;;;;;;;7.27;5.30;;;;;;;;;;5044753;28;20425;-68
2021/12/10 06:38:05;;;;;;;7.55;4.65;;;;;;;;;;5045694;28;20921;-67
2021/12/10 06:40:33;;;;;;;6.97;5.37;;;;;;;;;;5036401;28;20220;-71
2021/12/10 06:43:00;;;;;;;6.45;4.85;;;;;;;;;;5052720;28;20445;-68
2021/12/10 06:45:27;;;;;;;7.73;4.10;;;;;;;;;;5055204;28;20184;-73
2021/12/10 06:47:58;;;;;;;7.20;4.70;;;;;;;;;;5052743;28;20446;-70
2021/12/10 06:50:25;;;;;;;6.73;4.90;;;;;;;;;;5053258;28;20415;-73
2021/12/10 06:52:52;;;;;;;7.23;4.50;;;;;;;;;;5040785;28;20789;-68
2021/12/10 06:55:18;;;;;;;6.70;4.73;;;;;;;;;;5037756;28;20442;-71
2021/12/10 06:57:45;;;;;;;6.43;4.60;;;;;;;;;;5043159;28;20494;-72
2021/12/10 07:00:14;;;;;;;7.80;4.83;;;;;;;;;;5042250;28;20833;-72
2021/12/10 07:02:40;;;;;;;10.03;5.63;;;;;;;;;;5045107;28;20509;-70
2021/12/10 07:05:06;;;;;;;9.53;5.20;;;;;;;;;;5049165;28;20451;-72
2021/12/10 07:07:33;;;;;;;7.43;5.73;;;;;;;;;;5034813;28;20404;-73
2021/12/10 07:10:00;;;;;;;8.10;4.90;;;;;;;;;;5039338;28;20434;-69
2021/12/10 07:12:26;;;;;;;8.87;4.93;;;;;;;;;;5041172;28;20487;-68
2021/12/10 07:14:53;;;;;;;7.70;5.37;;;;;;;;;;5041067;28;20432;-67
2021/12/10 07:17:19;;;;;;;9.97;4.87;;;;;;;;;;5034632;28;20431;-68
2021/12/10 07:19:45;;;;;;;41.40;9.37;;;;;;;;;;5034373;28;20459;-68
2021/12/10 07:22:11;;;;;;;24.93;7.73;;;;;;;;;;5036892;28;20805;-68
2021/12/10 07:24:37;;;;;;;34.10;9.17;;;;;;;;;;5043730;28;20471;-70
2021/12/10 07:27:06;;;;;;;20.47;6.87;;;;;;;;;;5052783;28;20887;-67
2021/12/10 07:29:32;;;;;;;9.53;5.90;;;;;;;;;;5041695;28;20505;-68
2021/12/10 07:31:58;;;;;;;13.90;6.60;;;;;;;;;;5053440;28;20912;-70
2021/12/10 07:34:24;;;;;;;18.23;6.70;;;;;;;;;;5051636;28;20517;-67
2021/12/10 07:36:50;;;;;;;7.40;5.50;;;;;;;;;;5054288;28;20525;-68
2021/12/10 07:39:16;;;;;;;8.80;5.53;;;;;;;;;;5041251;28;20477;-69
2021/12/10 07:41:42;;;;;;;26.17;8.43;;;;;;;;;;5050577;28;20437;-73
2021/12/10 07:44:08;;;;;;;21.30;8.37;;;;;;;;;;5035251;28;20429;-68
2021/12/10 07:46:35;;;;;;;11.63;5.63;;;;;;;;;;5037285;28;20505;-71
2021/12/10 07:49:01;;;;;;;11.53;6.40;;;;;;;;;;5034100;28;20918;-71
2021/12/10 07:51:29;;;;;;;8.85;6.10;;;;;;;;;;5045581;28;20481;-70
2021/12/10 07:53:57;;;;;;;7.90;5.30;;;;;;;;;;5046660;28;20177;-72
2021/12/10 07:56:32;;;;;;;11.60;5.37;;;;;;;;;;5127255;27;20324;-68
2021/12/10 07:59:00;;;;;;;321.93;137.13;;;;;;;;;;5109757;28;20448;-70
2021/12/10 08:01:28;;;;;;;28.83;12.77;;;;;;;;;;5108076;28;20942;-71
2021/12/10 08:03:55;;;;;;;15.53;6.77;;;;;;;;;;5104725;28;20433;-70
2021/12/10 08:06:21;;;;;;;29.03;7.33;;;;;;;;;;5097233;28;20994;-67
2021/12/10 08:08:48;;;;;;;26.10;10.80;;;;;;;;;;5097515;28;20900;-69
2021/12/10 08:11:14;;;;;;;14.90;5.60;;;;;;;;;;5106934;28;20760;-68
2021/12/10 08:13:40;;;;;;;10.25;6.05;;;;;;;;;;5099452;28;20408;-68
2021/12/10 08:16:07;;;;;;;8.47;5.30;;;;;;;;;;5109008;28;20664;-67
2021/12/10 08:18:33;;;;;;;7.80;4.83;;;;;;;;;;5101294;28;20515;-67
2021/12/10 08:20:59;;;;;;;7.03;4.53;;;;;;;;;;5093113;28;20444;-68
2021/12/10 08:23:25;;;;;;;8.57;4.80;;;;;;;;;;5091278;28;20417;-68
2021/12/10 08:25:51;;;;;;;9.90;5.23;;;;;;;;;;5088872;28;20451;-67
2021/12/10 08:28:21;;;;;;;8.37;5.20;;;;;;;;;;5103627;28;20911;-70
2021/12/10 08:30:48;;;;;;;6.00;4.60;;;;;;;;;;5110386;28;20457;-69
2021/12/10 08:33:15;;;;;;;6.90;4.73;;;;;;;;;;5098135;28;20477;-70
2021/12/10 08:35:43;;;;;;;7.07;4.10;;;;;;;;;;5102389;28;20637;-71
2021/12/10 08:38:10;;;;;;;7.77;4.63;;;;;;;;;;5095602;28;20425;-70
2021/12/10 08:40:43;;;;;;;8.23;5.50;;;;;;;;;;5106849;28;20896;-69
2021/12/10 08:43:09;;;;;;;10.07;5.80;;;;;;;;;;5108908;28;20766;-71
2021/12/10 08:45:37;;;;;;;8.00;5.60;;;;;;;;;;5099199;28;20432;-70
2021/12/10 08:48:04;;;;;;;8.87;5.50;;;;;;;;;;5092119;28;20453;-70
2021/12/10 08:50:30;;;;;;;11.07;5.60;;;;;;;;;;5107783;28;20511;-70
2021/12/10 08:53:01;;;;;;;11.13;5.83;;;;;;;;;;5104134;28;20459;-70
2021/12/10 08:55:28;;;;;;;10.33;5.43;;;;;;;;;;5097163;28;20479;-68
2021/12/10 08:57:54;;;;;;;10.30;6.10;;;;;;;;;;5108148;28;20415;-72
2021/12/10 09:00:21;;;;;;;10.50;6.40;;;;;;;;;;5096482;28;20437;-68
2021/12/10 09:02:48;;;;;;;10.53;6.27;;;;;;;;;;5093074;28;20451;-67
2021/12/10 09:05:15;;;;;;;13.33;7.80;;;;;;;;;;5096144;28;20433;-67
2021/12/10 09:07:44;;;;;;;8.10;5.77;;;;;;;;;;5081131;28;20520;-68
2021/12/10 09:10:12;;;;;;;8.87;5.30;;;;;;;;;;5085254;28;20438;-69
2021/12/10 09:12:38;;;;;;;7.80;5.47;;;;;;;;;;5074639;28;20413;-68
2021/12/10 09:15:06;;;;;;;7.70;5.50;;;;;;;;;;5077561;28;20530;-68
2021/12/10 09:17:32;;;;;;;8.17;4.40;;;;;;;;;;5081037;28;20493;-69
2021/12/10 09:20:00;;;;;;;7.00;4.60;;;;;;;;;;5090283;28;20817;-69
2021/12/10 09:22:27;;;;;;;7.83;4.67;;;;;;;;;;5086933;28;20432;-69
2021/12/10 09:24:54;;;;;;;8.43;4.80;;;;;;;;;;5083310;28;20462;-69
2021/12/10 09:27:20;;;;;;;5.93;4.20;;;;;;;;;;5084873;28;20803;-67
2021/12/10 09:29:48;;;;;;;6.40;4.20;;;;;;;;;;5082102;28;20455;-68
2021/12/10 09:32:15;;;;;;;5.87;3.57;;;;;;;;;;5081452;28;20508;-69
2021/12/10 09:34:42;;;;;;;5.23;3.80;;;;;;;;;;5086748;28;20475;-68
2021/12/10 09:37:08;;;;;;;7.73;3.57;;;;;;;;;;5084714;28;20422;-69
2021/12/10 09:39:35;;;;;;;5.17;3.00;;;;;;;;;;5084050;28;20932;-71
2021/12/10 09:42:02;;;;;;;3.60;2.80;;;;;;;;;;5088674;28;20442;-68
2021/12/10 09:44:28;;;;;;;5.53;2.80;;;;;;;;;;5087395;28;20959;-69
2021/12/10 09:46:54;;;;;;;4.73;3.60;;;;;;;;;;5082828;28;20455;-70
2021/12/10 09:49:23;;;;;;;6.07;2.87;;;;;;;;;;5076540;28;20443;-69
2021/12/10 09:51:51;;;;;;;5.50;3.40;;;;;;;;;;5079532;28;20422;-68
2021/12/10 09:54:19;;;;;;;6.80;2.83;;;;;;;;;;5082060;28;20429;-69
2021/12/10 09:56:49;;;;;;;227.33;109.13;;;;;;;;;;5090855;28;20565;-68
2021/12/10 09:59:16;;;;;;;32.20;14.10;;;;;;;;;;5088387;28;20762;-71
2021/12/10 10:01:44;;;;;;;4.00;3.10;;;;;;;;;;5082801;28;20433;-68
2021/12/10 10:04:11;;;;;;;5.23;2.40;;;;;;;;;;5082657;28;20758;-70
2021/12/10 10:06:41;;;;;;;4.43;2.57;;;;;;;;;;5077445;28;20463;-69
2021/12/10 10:09:08;;;;;;;5.10;2.37;;;;;;;;;;5078566;28;20532;-69
2021/12/10 10:11:35;;;;;;;3.00;2.30;;;;;;;;;;5089459;28;20463;-70
2021/12/10 10:14:01;;;;;;;4.53;2.70;;;;;;;;;;5076917;28;20430;-68
2021/12/10 10:16:28;;;;;;;6.43;3.13;;;;;;;;;;5073506;28;20479;-68
2021/12/10 10:18:57;;;;;;;6.73;2.20;;;;;;;;;;5087490;28;20912;-70
2021/12/10 10:21:25;;;;;;;3.87;2.77;;;;;;;;;;5085331;28;20912;-71
2021/12/10 10:23:52;;;;;;;4.13;2.53;;;;;;;;;;5072755;28;20406;-69
2021/12/10 10:26:20;;;;;;;3.63;2.30;;;;;;;;;;5072105;28;20406;-69
2021/12/10 10:28:47;;;;;;;3.17;2.17;;;;;;;;;;5072251;28;20893;-69
2021/12/10 10:31:18;;;;;;;3.10;2.10;;;;;;;;;;5073629;28;20404;-68
2021/12/10 10:33:45;;;;;;;4.97;1.93;;;;;;;;;;5094495;28;20496;-70
2021/12/10 10:36:19;;;;;;;2.80;1.70;;;;;;;;;;5094274;28;20512;-70
2021/12/10 10:38:47;;;;;;;4.73;1.90;;;;;;;;;;5094448;28;20505;-69
2021/12/10 10:41:13;;;;;;;3.60;2.30;;;;;;;;;;5093532;28;20504;-66
2021/12/10 10:43:39;;;;;;;6.77;2.53;;;;;;;;;;5094398;28;20460;-68
2021/12/10 10:46:05;;;;;;;3.20;2.27;;;;;;;;;;5094372;28;20408;-68
2021/12/10 10:48:32;;;;;;;3.90;1.97;;;;;;;;;;5094224;28;20500;-77
2021/12/10 10:51:01;;;;;;;4.30;2.17;;;;;;;;;;5087141;28;20436;-72
2021/12/10 10:53:28;;;;;;;3.70;2.23;;;;;;;;;;5072595;28;20515;-70
2021/12/10 10:55:58;;;;;;;5.07;2.20;;;;;;;;;;5073212;28;20570;-72
2021/12/10 10:58:26;;;;;;;2.80;2.13;;;;;;;;;;5073689;28;20406;-73
2021/12/10 11:01:06;;;;;;;4.20;2.70;;;;;;;;;;5088298;28;20419;-71
2021/12/10 11:03:40;;;;;;;3.70;2.07;;;;;;;;;;5094021;28;20395;-67
2021/12/10 11:06:08;;;;;;;3.07;1.77;;;;;;;;;;5093949;28;20440;-67
2021/12/10 11:08:42;;;;;;;3.03;2.17;;;;;;;;;;5088605;28;20509;-68
2021/12/10 11:11:15;;;;;;;2.33;1.77;;;;;;;;;;5073517;28;20402;-71
2021/12/10 11:13:41;;;;;;;6.80;2.80;;;;;;;;;;5073566;28;20461;-70
2021/12/10 11:16:12;;;;;;;2.90;1.90;;;;;;;;;;5073133;28;20573;-72
2021/12/10 11:18:47;;;;;;;5.43;1.87;;;;;;;;;;5093438;28;20405;-71
2021/12/10 11:21:13;;;;;;;5.60;2.50;;;;;;;;;;5093700;28;20450;-71
2021/12/10 11:23:42;;;;;;;4.43;2.07;;;;;;;;;;5093554;28;20406;-71
2021/12/10 11:26:08;;;;;;;3.30;1.93;;;;;;;;;;5092764;28;20424;-69
2021/12/10 11:28:36;;;;;;;5.70;3.23;;;;;;;;;;5093501;28;20417;-70
2021/12/10 11:31:05;;;;;;;7.33;3.60;;;;;;;;;;5092042;28;20417;-71
2021/12/10 11:33:36;;;;;;;1.70;1.60;;;;;;;;;;5092323;28;20408;-72
2021/12/10 11:36:12;;;;;;;1.50;1.40;;;;;;;;;;5091030;28;20557;-71
2021/12/10 11:38:39;;;;;;;3.37;1.47;;;;;;;;;;5093339;28;20958;-74
2021/12/10 11:41:11;;;;;;;3.73;1.40;;;;;;;;;;5093253;28;20400;-71
2021/12/10 11:49:12;;;;;;;128.73;60.60;;;;;;;;;;5093230;28;20466;-70
2021/12/10 11:51:38;;;;;;;56.67;29.20;;;;;;;;;;5093234;28;20397;-69
2021/12/10 11:54:06;;;;;;;3.90;1.80;;;;;;;;;;5092008;28;20436;-72
2021/12/10 11:56:32;;;;;;;1.30;0.90;;;;;;;;;;5090105;28;21028;-72
2021/12/10 11:59:08;;;;;;;3.33;1.20;;;;;;;;;;5093232;28;20406;-71
2021/12/10 12:01:44;;;;;;;3.63;1.10;;;;;;;;;;5092016;28;20459;-72
2021/12/10 12:04:21;;;;;;;4.70;1.30;;;;;;;;;;5093026;28;20454;-67
2021/12/10 12:06:49;;;;;;;2.77;1.30;;;;;;;;;;5093156;28;20420;-68
2021/12/10 12:09:32;;;;;;;3.00;1.10;;;;;;;;;;5093113;28;20409;-68
2021/12/10 12:12:09;;;;;;;5.63;1.30;;;;;;;;;;5090928;28;20424;-67
2021/12/10 12:14:36;;;;;;;3.00;1.70;;;;;;;;;;5091489;28;20458;-70
2021/12/10 12:17:05;;;;;;;2.57;1.40;;;;;;;;;;5092969;28;20458;-70
2021/12/10 12:19:32;;;;;;;2.73;1.50;;;;;;;;;;5086607;28;20985;-70
2021/12/10 12:25:09;;;;;;;2.10;1.80;;;;;;;;;;5028048;28;20478;-69
2021/12/10 12:27:35;;;;;;;2.20;1.70;;;;;;;;;;5062431;28;20948;-72
2021/12/10 12:30:06;;;;;;;2.83;2.50;;;;;;;;;;5072607;28;20446;-72
2021/12/10 12:32:36;;;;;;;2.50;1.90;;;;;;;;;;5071477;28;20900;-71
2021/12/10 12:35:13;;;;;;;3.87;1.97;;;;;;;;;;5076945;28;20471;-69
2021/12/10 12:37:39;;;;;;;2.70;2.27;;;;;;;;;;5093006;28;20503;-72
2021/12/10 12:40:05;;;;;;;2.90;1.80;;;;;;;;;;5092671;28;20409;-70
2021/12/10 12:42:34;;;;;;;1.93;1.70;;;;;;;;;;5094671;28;20401;-69
2021/12/10 12:45:04;;;;;;;3.03;1.90;;;;;;;;;;5076275;28;20452;-71
2021/12/10 12:47:40;;;;;;;2.33;2.13;;;;;;;;;;5074940;28;20432;-70
2021/12/10 12:50:12;;;;;;;4.43;2.63;;;;;;;;;;5076046;28;20452;-73
2021/12/10 12:52:38;;;;;;;9.23;2.30;;;;;;;;;;5075892;28;20418;-76
2021/12/10 12:55:23;;;;;;;8.17;3.53;;;;;;;;;;5075685;28;20825;-70
2021/12/10 12:57:57;;;;;;;8.70;2.97;;;;;;;;;;5076134;28;20502;-69
2021/12/10 13:00:35;;;;;;;9.53;3.00;;;;;;;;;;5076011;28;20956;-69
2021/12/10 13:03:05;;;;;;;4.50;3.10;;;;;;;;;;5074533;28;20449;-69
2021/12/10 13:05:41;;;;;;;6.43;2.50;;;;;;;;;;5075983;28;20430;-70
2021/12/10 13:08:08;;;;;;;7.53;2.83;;;;;;;;;;5075845;28;20830;-67
2021/12/10 13:10:38;;;;;;;7.53;2.80;;;;;;;;;;5075357;28;20418;-69
2021/12/10 13:13:12;;;;;;;7.13;3.57;;;;;;;;;;5074938;28;20449;-70
2021/12/10 13:15:39;;;;;;;6.67;2.67;;;;;;;;;;5077774;28;20506;-69
2021/12/10 13:18:08;;;;;;;7.40;2.90;;;;;;;;;;5079455;28;20453;-69
2021/12/10 13:20:40;;;;;;;5.53;3.07;;;;;;;;;;5079533;28;20468;-70
2021/12/10 13:23:08;;;;;;;7.63;3.20;;;;;;;;;;5084401;28;20786;-68
2021/12/10 13:25:36;;;;;;;5.40;3.00;;;;;;;;;;5095816;28;20405;-68
2021/12/10 13:28:02;;;;;;;4.07;3.00;;;;;;;;;;5095512;28;20392;-70
2021/12/10 13:30:34;;;;;;;6.70;3.00;;;;;;;;;;5094920;28;20415;-68
2021/12/10 13:33:00;;;;;;;4.03;2.77;;;;;;;;;;5092310;28;20447;-70
2021/12/10 13:35:28;;;;;;;4.70;2.97;;;;;;;;;;5095277;28;20492;-73
2021/12/10 13:37:55;;;;;;;9.23;5.20;;;;;;;;;;5095353;28;20405;-71
2021/12/10 13:40:22;;;;;;;7.10;2.87;;;;;;;;;;5089880;28;20528;-72
2021/12/10 13:42:49;;;;;;;8.60;2.60;;;;;;;;;;5075110;28;20434;-68
2021/12/10 13:45:23;;;;;;;6.93;2.13;;;;;;;;;;5078555;28;20494;-71
2021/12/10 13:47:52;;;;;;;3.50;2.77;;;;;;;;;;5074655;28;20426;-70
2021/12/10 13:50:25;;;;;;;5.60;3.20;;;;;;;;;;5080563;28;20421;-69
2021/12/10 13:53:00;;;;;;;4.67;3.10;;;;;;;;;;5095162;28;20441;-71
2021/12/10 13:55:33;;;;;;;4.30;2.60;;;;;;;;;;5091485;28;20487;-66
2021/12/10 13:58:08;;;;;;;4.97;2.90;;;;;;;;;;5081746;28;20413;-72
2021/12/10 14:00:35;;;;;;;3.33;2.80;;;;;;;;;;5074797;28;20477;-70
2021/12/10 14:03:01;;;;;;;5.10;3.50;;;;;;;;;;5085285;28;20411;-70
2021/12/10 14:05:29;;;;;;;7.53;4.10;;;;;;;;;;5094795;28;20409;-70
2021/12/10 14:07:58;;;;;;;7.67;3.87;;;;;;;;;;5088810;28;20417;-71
2021/12/10 14:10:35;;;;;;;9.60;3.53;;;;;;;;;;5074527;28;20514;-70
2021/12/10 14:13:04;;;;;;;13.90;3.90;;;;;;;;;;5076913;28;20419;-71
2021/12/10 14:15:49;;;;;;;6.97;2.90;;;;;;;;;;5078459;28;20484;-70
2021/12/10 14:18:20;;;;;;;6.23;2.90;;;;;;;;;;5077047;28;20765;-71
2021/12/10 14:20:51;;;;;;;17.17;4.17;;;;;;;;;;5074747;28;20401;-72
2021/12/10 14:23:19;;;;;;;8.70;3.80;;;;;;;;;;5074195;28;20422;-70
2021/12/10 14:25:50;;;;;;;11.17;4.00;;;;;;;;;;5074273;28;20390;-70
2021/12/10 14:28:18;;;;;;;6.87;3.77;;;;;;;;;;5077143;28;20431;-70
2021/12/10 14:30:53;;;;;;;6.00;3.20;;;;;;;;;;5092677;28;20420;-69
2021/12/10 14:33:24;;;;;;;4.53;2.90;;;;;;;;;;5078690;28;20422;-69
2021/12/10 14:35:52;;;;;;;4.17;3.20;;;;;;;;;;5073431;28;20578;-69
2021/12/10 14:38:29;;;;;;;4.63;3.67;;;;;;;;;;5079668;28;20804;-69
2021/12/10 14:40:58;;;;;;;3.33;3.03;;;;;;;;;;5086928;28;20422;-68
2021/12/10 14:43:50;;;;;;;6.27;3.30;;;;;;;;;;5078460;28;20419;-69
2021/12/10 14:46:16;;;;;;;2.60;2.30;;;;;;;;;;5078940;28;20457;-69
2021/12/10 14:49:00;;;;;;;4.83;3.50;;;;;;;;;;5088107;28;20458;-66
2021/12/10 14:51:27;;;;;;;3.27;2.97;;;;;;;;;;5083368;28;20417;-66
2021/12/10 14:54:01;;;;;;;5.13;3.20;;;;;;;;;;5084513;28;20898;-69
2021/12/10 14:56:33;;;;;;;5.67;2.90;;;;;;;;;;5072054;28;20492;-70
2021/12/10 14:59:17;;;;;;;4.70;2.73;;;;;;;;;;5076578;28;20418;-70
2021/12/10 15:02:02;;;;;;;2.90;2.63;;;;;;;;;;5073657;28;20409;-70
2021/12/10 15:04:33;;;;;;;4.00;3.57;;;;;;;;;;5073076;28;20463;-69